Terminal Aerodrome Forecast
Issued by NWS Sioux Falls, SD

Home | Current Version | Previous Version | Graphics & Text | Print | Product List | Glossary Off
Versions: 1 2 3 4 5 6 7 8 9 10 11 12 13 14 15 16 17 18 19 20 21 22 23 24 25

000
FTUS43 KFSD 230522
TAFFSD
TAF
KFSD 230522Z 2306/2406 VRB03KT 3SM BR SCT004
      TEMPO 2306/2310 1/2SM FG VV002
     FM231000 VRB03KT 5SM BR BKN004
     FM231300 23006KT P6SM SCT010
     FM231600 19006KT P6SM SCT250=

USA.gov is the U.S. government's official web portal to all federal, state and local government web resources and services.